createdAt,value
2023-03-22T00:01:21.819Z,5.80
2023-03-22T00:03:51.698Z,5.50
2023-03-22T00:06:19.881Z,5.60
2023-03-22T00:08:51.744Z,5.70
2023-03-22T00:11:20.703Z,5.60
2023-03-22T00:13:48.881Z,6.00
2023-03-22T00:16:17.667Z,5.70
2023-03-22T00:18:47.263Z,5.60
2023-03-22T00:21:17.204Z,5.70
2023-03-22T00:23:46.340Z,5.38
2023-03-22T00:26:15.613Z,5.00
2023-03-22T09:27:46.406Z,3.10
2023-03-22T09:30:14.779Z,2.60
2023-03-22T09:32:42.879Z,2.70
2023-03-22T09:35:11.038Z,2.30
2023-03-22T09:37:39.400Z,2.10
2023-03-22T09:40:09.305Z,2.50
2023-03-22T09:42:39.817Z,2.43
2023-03-22T09:45:16.027Z,2.33
2023-03-22T09:47:47.590Z,2.57
2023-03-22T09:50:20.105Z,2.73
2023-03-22T09:52:48.746Z,2.27
2023-03-22T09:55:26.922Z,1.90
2023-03-22T09:58:03.928Z,1.80
2023-03-22T10:00:42.526Z,1.67
2023-03-22T10:03:22.874Z,2.20
2023-03-22T10:05:58.693Z,2.73
2023-03-22T10:08:38.054Z,1.90
2023-03-22T10:11:16.091Z,2.40
2023-03-22T10:13:52.412Z,2.07
2023-03-22T10:16:29.404Z,1.93
2023-03-22T10:19:04.486Z,2.40
2023-03-22T10:21:34.576Z,2.00
2023-03-22T10:24:07.705Z,1.67
2023-03-22T10:26:40.558Z,1.80
2023-03-22T10:29:14.899Z,1.70
2023-03-22T10:31:46.367Z,1.37
2023-03-22T10:34:21.154Z,1.70
2023-03-22T10:36:51.650Z,1.60
2023-03-22T10:39:28.382Z,1.93
2023-03-22T10:42:00.458Z,1.60
2023-03-22T10:44:31.071Z,2.20
2023-03-22T10:47:07.396Z,1.30
2023-03-22T10:49:39.507Z,1.53
2023-03-22T10:52:21.146Z,1.40
2023-03-22T10:54:49.419Z,1.83
2023-03-22T10:57:17.496Z,2.47
2023-03-22T10:59:48.164Z,1.77
2023-03-22T11:02:23.518Z,1.67
2023-03-22T11:04:54.513Z,1.92
2023-03-22T11:07:32.881Z,1.43
2023-03-22T11:10:22.222Z,1.40
2023-03-22T11:12:52.574Z,1.23
2023-03-22T11:15:31.951Z,1.37
2023-03-22T11:18:05.609Z,1.30
2023-03-22T11:20:35.037Z,2.17
2023-03-22T11:23:06.915Z,2.20
2023-03-22T11:25:37.777Z,1.27
2023-03-22T11:28:11.259Z,1.50
2023-03-22T11:30:40.032Z,1.60
2023-03-22T11:33:18.623Z,1.70
2023-03-22T11:35:48.764Z,1.60
2023-03-22T11:38:30.540Z,1.97
2023-03-22T11:41:02.527Z,2.07
2023-03-22T11:43:36.040Z,2.60
2023-03-22T11:46:05.858Z,2.40
2023-03-22T11:48:36.829Z,2.13
2023-03-22T11:51:12.451Z,2.33
2023-03-22T11:53:43.665Z,2.73
2023-03-22T11:56:14.610Z,2.97
2023-03-22T11:58:55.099Z,2.53
2023-03-22T12:01:32.920Z,2.90
2023-03-22T12:04:05.060Z,2.50
2023-03-22T12:06:36.798Z,2.40
2023-03-22T12:09:08.185Z,2.23
2023-03-22T12:11:41.289Z,2.20
2023-03-22T12:14:17.902Z,2.70
2023-03-22T12:16:49.277Z,2.43
2023-03-22T12:19:27.254Z,2.50
2023-03-22T12:21:56.764Z,2.10
2023-03-22T12:24:28.051Z,2.37
2023-03-22T12:27:01.468Z,2.63
2023-03-22T12:29:30.155Z,2.93
2023-03-22T12:32:03.689Z,2.97
2023-03-22T12:34:41.970Z,2.90
2023-03-22T12:37:15.277Z,2.50
2023-03-22T12:39:50.253Z,3.17
2023-03-22T12:42:24.503Z,2.03
2023-03-22T12:45:04.598Z,1.80
2023-03-22T12:47:41.615Z,2.33
2023-03-22T12:50:15.630Z,2.33
2023-03-22T12:52:48.103Z,2.50
2023-03-22T12:55:25.041Z,2.83
2023-03-22T12:57:54.797Z,2.30
2023-03-22T13:00:28.572Z,2.00
2023-03-22T13:03:01.472Z,1.63
2023-03-22T13:05:35.208Z,2.10
2023-03-22T13:08:05.577Z,2.20
2023-03-22T13:11:03.725Z,2.63
2023-03-22T13:13:45.842Z,2.23
2023-03-22T13:16:25.501Z,2.13
2023-03-22T13:19:17.968Z,2.13
2023-03-22T13:21:50.245Z,2.17
2023-03-22T13:24:23.462Z,2.20
2023-03-22T13:26:53.560Z,2.10
2023-03-22T13:29:24.449Z,1.80
2023-03-22T13:31:58.881Z,1.70
2023-03-22T13:34:39.375Z,1.40
2023-03-22T13:37:18.744Z,2.53
2023-03-22T13:39:51.993Z,1.67
2023-03-22T13:42:22.854Z,1.33
2023-03-22T13:44:58.534Z,1.43
2023-03-22T13:47:36.672Z,1.30
2023-03-22T13:50:12.482Z,1.40
2023-03-22T13:52:45.044Z,1.60
2023-03-22T13:55:32.757Z,1.20
2023-03-22T13:58:01.853Z,1.47
2023-03-22T14:00:48.644Z,1.77
2023-03-22T14:03:25.461Z,1.33
2023-03-22T14:06:10.157Z,1.10
2023-03-22T14:08:41.724Z,1.47
2023-03-22T14:11:21.764Z,1.60
2023-03-22T14:13:52.344Z,1.40
2023-03-22T14:16:27.618Z,1.33
2023-03-22T14:18:56.978Z,1.00
2023-03-22T14:21:33.891Z,0.93
